Nearby METAR Reports

 

KMLE - Omaha/Millard, Nebraska, USA
Distance from station: NE 1mi, 2km
Updated: Fri, 17-Aug-2018 12:15pm CDT
Partly cloudy
Partly cloudy
 Wind from NNW
Wind: NNW 6 mph , 9 km/h
Temperature: 82°F , 28°C
Heat Index: 86°F , 30°C
Dew Point: 70°F , 21°C
Humidity: 66%
Barometer: 30.10 inHg , 1019.3 hPa
Clouds: Partly cloudy
Visibility: 10 miles , 16 km
Cloud details: Partly cloudy 3000 ft
2018/08/17 17:15 KMLE 171715Z AUTO 34005KT 10SM SCT030 28/21 A3010 RMK AO2 T02800205
KOFF - Offutt Afb/Belle, Nebraska, USA
Distance from station: ESE 12mi, 20km
Updated: Fri, 17-Aug-2018 11:56am CDT
Clear
Clear
 Wind from N
Wind: N 9 mph , 15 km/h
Temperature: 82°F , 28°C
Heat Index: 85°F , 29°C
Dew Point: 68°F , 20°C
Humidity: 62%
Barometer: 30.09 inHg , 1019 hPa
Clouds: Clear
Visibility: 10 miles , 16 km
2018/08/17 16:56 KOFF 171656Z AUTO 35008KT 10SM CLR 28/20 A3009 RMK AO2 SLP186 T02770197 $
 
KOMA - Omaha/Eppley, Nebraska, USA
Distance from station: NE 15mi, 24km
Updated: Fri, 17-Aug-2018 11:52am CDT
Partly cloudy
Partly cloudy
 Wind from NNW
Wind: NNW 9 mph , 15 km/h
Temperature: 81°F , 27°C
Heat Index: 84°F , 29°C
Dew Point: 68°F , 20°C
Humidity: 66%
Barometer: 30.09 inHg , 1019 hPa
Clouds: Partly cloudy
Visibility: 10 miles , 16 km
Cloud details: Partly cloudy 2500 ft
2018/08/17 16:52 KOMA 171652Z 34008KT 10SM SCT025 27/20 A3009 RMK AO2 SLP181 T02720200
KBTA - Blair Muni, Nebraska, USA
Distance from station: N 16mi, 25km
Updated: Fri, 17-Aug-2018 12:15pm CDT
Partly cloudy
Partly cloudy
 Wind from NNE
Wind: NNE 6 mph , 9 km/h
Temperature: 81°F , 27°C
Heat Index: 84°F , 29°C
Dew Point: 68°F , 20°C
Humidity: 66%
Barometer: 30.10 inHg , 1019.3 hPa
Clouds: Partly cloudy
Visibility: 10 miles , 16 km
Cloud details: Partly cloudy 2700 ft
Partly cloudy 3200 ft
2018/08/17 17:15 KBTA 171715Z AUTO 02005KT 10SM SCT027 SCT032 27/20 A3010 RMK AO2 T02660203
 
KCBF - Council Bluffs, Iowa, USA
Distance from station: ENE 20mi, 32km
Updated: Fri, 17-Aug-2018 12:15pm CDT
Few Clouds
Few Clouds
 Wind from N
Wind: N 10 mph , 17 km/h
Temperature: 81°F , 27°C
Heat Index: 84°F , 29°C
Dew Point: 68°F , 20°C
Humidity: 66%
Barometer: 30.09 inHg , 1019 hPa
Clouds: Few Clouds
Visibility: 10 miles , 16 km
Cloud details: Few Clouds 3100 ft
2018/08/17 17:15 KCBF 171715Z AUTO 35009KT 10SM FEW031 27/20 A3009 RMK AO2
KPMV - Plattsmouth Muni, Nebraska, USA
Distance from station: SE 20mi, 32km
Updated: Fri, 17-Aug-2018 12:15pm CDT
Partly cloudy
Partly cloudy
 Wind from NNE
Wind: NNE 9 mph , 15 km/h
Temperature: 81°F , 27°C
Heat Index: 84°F , 29°C
Dew Point: 68°F , 20°C
Humidity: 66%
Barometer: 30.10 inHg , 1019.3 hPa
Clouds: Partly cloudy
Visibility: 10 miles , 16 km
Cloud details: Partly cloudy 3000 ft
2018/08/17 17:15 KPMV 171715Z AUTO 02008KT 10SM SCT030 27/20 A3010 RMK AO2 T02710201
 
KAHQ - Wahoo, Nebraska, USA
Distance from station: W 25mi, 40km
Updated: Fri, 17-Aug-2018 12:15pm CDT
Clear
Clear
 Wind from NNE
Wind: NNE 7 mph , 11 km/h
Temperature: 81°F , 27°C
Heat Index: 84°F , 29°C
Dew Point: 68°F , 20°C
Humidity: 66%
Barometer: 30.11 inHg , 1019.6 hPa
Clouds: Clear
Visibility: 10 miles , 16 km
2018/08/17 17:15 KAHQ 171715Z AUTO 02006KT 10SM CLR 27/20 A3011 RMK AO2 T02650198
KFET - Fremont Muni Arp, Nebraska, USA
Distance from station: NW 27mi, 43km
Updated: Fri, 17-Aug-2018 12:15pm CDT
Partly cloudy
Partly cloudy
 Wind from N
Wind: N 7 mph , 11 km/h
Temperature: 82°F , 28°C
Heat Index: 84°F , 29°C
Dew Point: 66°F , 19°C
Humidity: 58%
Barometer: 30.12 inHg , 1020 hPa
Clouds: Partly cloudy
Visibility: 10 miles , 16 km
Cloud details: Partly cloudy 3300 ft
2018/08/17 17:15 KFET 171715Z AUTO 35006KT 10SM SCT033 28/19 A3012 RMK AO2 T02780188
 
KTQE - Tekamah, Nebraska, USA
Distance from station: N 40mi, 64km
Updated: Fri, 17-Aug-2018 11:54am CDT
Partly cloudy
Partly cloudy
 Wind from N
Wind: N 10 mph , 17 km/h
Temperature: 81°F , 27°C
Heat Index: 85°F , 29°C
Dew Point: 70°F , 21°C
Humidity: 70%
Barometer: 30.10 inHg , 1019.3 hPa
Clouds: Partly cloudy
Visibility: 10 miles , 16 km
Cloud details: Partly cloudy 2300 ft
2018/08/17 16:54 KTQE 171654Z AUTO 36009KT 10SM SCT023 27/21 A3010 RMK AO2 SLP181 T02670211
KLNK - Lincoln, Nebraska, USA
Distance from station: SW 41mi, 65km
Updated: Fri, 17-Aug-2018 11:54am CDT
Clear
Clear
 Wind from NE
Wind: NE 12 mph , 19 km/h
Temperature: 82°F , 28°C
Heat Index: 84°F , 29°C
Dew Point: 66°F , 19°C
Humidity: 58%
Barometer: 30.12 inHg , 1020 hPa
Clouds: Clear
Visibility: 10 miles , 16 km
2018/08/17 16:54 KLNK 171654Z 04010KT 10SM CLR 28/19 A3012 RMK AO2 SLP187 T02780194
 
KAFK - Nebraska City, Nebraska, USA
Distance from station: SSE 43mi, 70km
Updated: Fri, 17-Aug-2018 12:15pm CDT
Clear
Clear
 Wind from NNE
Wind: NNE 12 mph , 19 km/h
Temperature: 81°F , 27°C
Heat Index: 85°F , 29°C
Dew Point: 70°F , 21°C
Humidity: 70%
Barometer: 30.10 inHg , 1019.3 hPa
Clouds: Clear
Visibility: 10 miles , 16 km
2018/08/17 17:15 KAFK 171715Z AUTO 02010KT 10SM CLR 27/21 A3010 RMK AO2 T02690212
KRDK - Red Oak, Iowa, USA
Distance from station: ESE 47mi, 75km
Updated: Fri, 17-Aug-2018 12:15pm CDT
Partly cloudy
Partly cloudy
 Wind from N
Wind: N 8 mph , 13 km/h, Gust: 16 mph , 26 km/h
Temperature: 82°F , 28°C
Heat Index: 86°F , 30°C
Dew Point: 70°F , 21°C
Humidity: 66%
Barometer: 30.08 inHg , 1018.6 hPa
Clouds: Partly cloudy
Visibility: 10 miles , 16 km
Cloud details: Partly cloudy 2600 ft
2018/08/17 17:15 KRDK 171715Z AUTO 01007G14KT 10SM SCT026 28/21 A3008 RMK AO2
 
KSDA - Shenandoah Muni, Iowa, USA
Distance from station: SE 48mi, 77km
Updated: Fri, 17-Aug-2018 12:15pm CDT
Clear
Clear
 Wind from N
Wind: N 10 mph , 17 km/h
Temperature: 81°F , 27°C
Heat Index: 85°F , 29°C
Dew Point: 70°F , 21°C
Humidity: 70%
Barometer: 30.08 inHg , 1018.6 hPa
Clouds: Clear
Visibility: 10 miles , 16 km
2018/08/17 17:15 KSDA 171715Z AUTO 01009KT 350V050 10SM CLR 27/21 A3008 RMK AO2
KHNR - Harlan Muni, Iowa, USA
Distance from station: NE 49mi, 80km
Updated: Fri, 17-Aug-2018 12:15pm CDT

 Wind from NE
Wind: NE 9 mph , 15 km/h
Temperature: 81°F , 27°C
Heat Index: 85°F , 29°C
Dew Point: 70°F , 21°C
Humidity: 70%
Barometer: 30.09 inHg , 1019 hPa
Visibility: 10 miles , 16 km
2018/08/17 17:15 KHNR 171715Z AUTO 05008KT 10SM 27/21 A3009 RMK AO2